sensor_id;sensor_type;location;lat;lon;timestamp;P1;durP1;ratioP1;P2;durP2;ratioP2
72895;SDS011;61036;53.224;6.554;2022-09-09T00:04:30;10.93;;;7.93;;
72895;SDS011;61036;53.224;6.554;2022-09-09T00:09:28;14.07;;;8.97;;
72895;SDS011;61036;53.224;6.554;2022-09-09T00:12:04;9.70;;;7.87;;
72895;SDS011;61036;53.224;6.554;2022-09-09T00:17:08;11.67;;;9.10;;
72895;SDS011;61036;53.224;6.554;2022-09-09T00:19:40;11.70;;;9.23;;
72895;SDS011;61036;53.224;6.554;2022-09-09T00:24:43;12.87;;;9.10;;
72895;SDS011;61036;53.224;6.554;2022-09-09T00:30:25;12.53;;;8.67;;
72895;SDS011;61036;53.224;6.554;2022-09-09T00:33:05;11.67;;;9.17;;
72895;SDS011;61036;53.224;6.554;2022-09-09T00:35:37;13.03;;;8.73;;
72895;SDS011;61036;53.224;6.554;2022-09-09T00:38:10;12.33;;;9.33;;
72895;SDS011;61036;53.224;6.554;2022-09-09T00:40:53;11.60;;;8.93;;
72895;SDS011;61036;53.224;6.554;2022-09-09T00:43:40;12.43;;;8.87;;
72895;SDS011;61036;53.224;6.554;2022-09-09T00:51:15;10.83;;;9.13;;
72895;SDS011;61036;53.224;6.554;2022-09-09T00:54:06;12.00;;;8.60;;
72895;SDS011;61036;53.224;6.554;2022-09-09T00:56:47;11.27;;;8.67;;
72895;SDS011;61036;53.224;6.554;2022-09-09T00:59:22;11.07;;;8.97;;
72895;SDS011;61036;53.224;6.554;2022-09-09T01:01:56;13.30;;;9.00;;
72895;SDS011;61036;53.224;6.554;2022-09-09T01:04:33;11.83;;;8.37;;
72895;SDS011;61036;53.224;6.554;2022-09-09T01:07:16;10.60;;;8.37;;
72895;SDS011;61036;53.224;6.554;2022-09-09T01:12:15;11.73;;;7.70;;
72895;SDS011;61036;53.224;6.554;2022-09-09T01:14:55;11.17;;;8.53;;
72895;SDS011;61036;53.224;6.554;2022-09-09T01:17:36;10.50;;;8.50;;
72895;SDS011;61036;53.224;6.554;2022-09-09T01:20:20;9.37;;;8.13;;
72895;SDS011;61036;53.224;6.554;2022-09-09T01:28:58;12.73;;;8.60;;
72895;SDS011;61036;53.224;6.554;2022-09-09T01:31:40;13.10;;;8.70;;
72895;SDS011;61036;53.224;6.554;2022-09-09T01:34:18;8.90;;;6.90;;
72895;SDS011;61036;53.224;6.554;2022-09-09T01:36:49;10.87;;;7.70;;
72895;SDS011;61036;53.224;6.554;2022-09-09T01:39:22;9.50;;;7.80;;
72895;SDS011;61036;53.224;6.554;2022-09-09T01:41:57;10.83;;;6.77;;
72895;SDS011;61036;53.224;6.554;2022-09-09T01:44:23;10.13;;;7.33;;
72895;SDS011;61036;53.224;6.554;2022-09-09T01:46:50;11.57;;;7.57;;
72895;SDS011;61036;53.224;6.554;2022-09-09T01:49:19;9.53;;;7.10;;
72895;SDS011;61036;53.224;6.554;2022-09-09T01:51:49;11.13;;;7.50;;
72895;SDS011;61036;53.224;6.554;2022-09-09T01:54:23;11.00;;;7.80;;
72895;SDS011;61036;53.224;6.554;2022-09-09T01:57:02;9.80;;;7.40;;
72895;SDS011;61036;53.224;6.554;2022-09-09T01:59:39;9.77;;;7.70;;
72895;SDS011;61036;53.224;6.554;2022-09-09T02:05:28;12.83;;;8.03;;
72895;SDS011;61036;53.224;6.554;2022-09-09T02:08:05;10.90;;;8.17;;
72895;SDS011;61036;53.224;6.554;2022-09-09T02:13:31;12.17;;;8.60;;
72895;SDS011;61036;53.224;6.554;2022-09-09T02:18:35;12.37;;;8.63;;
72895;SDS011;61036;53.224;6.554;2022-09-09T02:21:06;12.43;;;9.47;;
72895;SDS011;61036;53.224;6.554;2022-09-09T02:23:33;12.60;;;9.90;;
72895;SDS011;61036;53.224;6.554;2022-09-09T02:26:03;12.70;;;9.23;;
72895;SDS011;61036;53.224;6.554;2022-09-09T02:28:30;14.87;;;9.77;;
72895;SDS011;61036;53.224;6.554;2022-09-09T02:30:58;13.50;;;10.97;;
72895;SDS011;61036;53.224;6.554;2022-09-09T02:33:33;16.53;;;11.00;;
72895;SDS011;61036;53.224;6.554;2022-09-09T02:36:03;13.83;;;10.37;;
72895;SDS011;61036;53.224;6.554;2022-09-09T02:38:33;14.00;;;9.53;;
72895;SDS011;61036;53.224;6.554;2022-09-09T02:41:07;13.33;;;10.17;;
72895;SDS011;61036;53.224;6.554;2022-09-09T02:43:34;13.30;;;10.07;;
72895;SDS011;61036;53.224;6.554;2022-09-09T02:46:08;12.47;;;9.53;;
72895;SDS011;61036;53.224;6.554;2022-09-09T02:48:45;14.53;;;10.87;;
72895;SDS011;61036;53.224;6.554;2022-09-09T02:51:19;14.27;;;10.67;;
72895;SDS011;61036;53.224;6.554;2022-09-09T02:56:38;15.80;;;10.90;;
72895;SDS011;61036;53.224;6.554;2022-09-09T02:59:08;14.27;;;9.97;;
72895;SDS011;61036;53.224;6.554;2022-09-09T03:01:35;12.90;;;9.30;;
72895;SDS011;61036;53.224;6.554;2022-09-09T03:04:02;13.03;;;9.67;;
72895;SDS011;61036;53.224;6.554;2022-09-09T03:06:30;12.07;;;9.23;;
72895;SDS011;61036;53.224;6.554;2022-09-09T03:09:04;11.50;;;9.77;;
72895;SDS011;61036;53.224;6.554;2022-09-09T03:11:30;15.00;;;9.33;;
72895;SDS011;61036;53.224;6.554;2022-09-09T03:13:56;12.47;;;9.63;;
72895;SDS011;61036;53.224;6.554;2022-09-09T03:16:23;13.67;;;9.60;;
72895;SDS011;61036;53.224;6.554;2022-09-09T03:18:51;11.03;;;9.40;;
72895;SDS011;61036;53.224;6.554;2022-09-09T03:21:18;13.37;;;9.87;;
72895;SDS011;61036;53.224;6.554;2022-09-09T03:23:44;13.37;;;9.70;;
72895;SDS011;61036;53.224;6.554;2022-09-09T03:26:10;14.10;;;9.53;;
72895;SDS011;61036;53.224;6.554;2022-09-09T03:28:42;14.60;;;9.50;;
72895;SDS011;61036;53.224;6.554;2022-09-09T03:31:10;13.37;;;8.90;;
72895;SDS011;61036;53.224;6.554;2022-09-09T03:33:38;16.13;;;9.63;;
72895;SDS011;61036;53.224;6.554;2022-09-09T03:36:06;14.73;;;9.00;;
72895;SDS011;61036;53.224;6.554;2022-09-09T03:38:34;11.73;;;9.00;;
72895;SDS011;61036;53.224;6.554;2022-09-09T03:41:00;12.70;;;9.03;;
72895;SDS011;61036;53.224;6.554;2022-09-09T03:43:27;10.40;;;8.23;;
72895;SDS011;61036;53.224;6.554;2022-09-09T03:45:54;11.80;;;7.90;;
72895;SDS011;61036;53.224;6.554;2022-09-09T03:48:24;11.23;;;7.87;;
72895;SDS011;61036;53.224;6.554;2022-09-09T03:50:54;12.30;;;7.80;;
72895;SDS011;61036;53.224;6.554;2022-09-09T03:53:21;12.03;;;7.07;;
72895;SDS011;61036;53.224;6.554;2022-09-09T03:55:50;10.80;;;6.93;;
72895;SDS011;61036;53.224;6.554;2022-09-09T03:58:22;10.40;;;6.33;;
72895;SDS011;61036;53.224;6.554;2022-09-09T04:01:02;8.67;;;5.97;;
72895;SDS011;61036;53.224;6.554;2022-09-09T04:03:45;9.13;;;5.80;;
72895;SDS011;61036;53.224;6.554;2022-09-09T04:06:11;9.30;;;5.57;;
72895;SDS011;61036;53.224;6.554;2022-09-09T04:08:39;7.60;;;4.70;;
72895;SDS011;61036;53.224;6.554;2022-09-09T04:11:05;7.80;;;4.20;;
72895;SDS011;61036;53.224;6.554;2022-09-09T04:13:33;6.70;;;4.33;;
72895;SDS011;61036;53.224;6.554;2022-09-09T04:16:01;6.90;;;3.40;;
72895;SDS011;61036;53.224;6.554;2022-09-09T04:18:28;7.17;;;4.13;;
72895;SDS011;61036;53.224;6.554;2022-09-09T04:20:55;6.87;;;3.33;;
72895;SDS011;61036;53.224;6.554;2022-09-09T04:23:26;7.80;;;3.90;;
72895;SDS011;61036;53.224;6.554;2022-09-09T04:25:56;8.23;;;3.57;;
72895;SDS011;61036;53.224;6.554;2022-09-09T04:28:24;5.93;;;3.87;;
72895;SDS011;61036;53.224;6.554;2022-09-09T04:30:51;7.70;;;4.13;;
72895;SDS011;61036;53.224;6.554;2022-09-09T04:33:18;7.23;;;3.43;;
72895;SDS011;61036;53.224;6.554;2022-09-09T04:35:48;8.10;;;3.70;;
72895;SDS011;61036;53.224;6.554;2022-09-09T04:38:16;7.23;;;3.83;;
72895;SDS011;61036;53.224;6.554;2022-09-09T04:40:43;8.13;;;3.70;;
72895;SDS011;61036;53.224;6.554;2022-09-09T04:43:11;8.97;;;4.30;;
72895;SDS011;61036;53.224;6.554;2022-09-09T04:45:37;7.07;;;4.07;;
72895;SDS011;61036;53.224;6.554;2022-09-09T04:48:06;6.97;;;4.27;;
72895;SDS011;61036;53.224;6.554;2022-09-09T04:50:35;7.43;;;4.23;;
72895;SDS011;61036;53.224;6.554;2022-09-09T04:53:03;7.10;;;4.20;;
72895;SDS011;61036;53.224;6.554;2022-09-09T04:55:31;7.83;;;3.97;;
72895;SDS011;61036;53.224;6.554;2022-09-09T04:57:57;7.10;;;4.20;;
72895;SDS011;61036;53.224;6.554;2022-09-09T05:00:23;8.23;;;4.77;;
72895;SDS011;61036;53.224;6.554;2022-09-09T05:02:49;6.33;;;4.13;;
72895;SDS011;61036;53.224;6.554;2022-09-09T05:05:16;9.00;;;5.20;;
72895;SDS011;61036;53.224;6.554;2022-09-09T05:07:45;11.23;;;5.33;;
72895;SDS011;61036;53.224;6.554;2022-09-09T05:10:12;9.10;;;5.10;;
72895;SDS011;61036;53.224;6.554;2022-09-09T05:12:41;11.13;;;6.53;;
72895;SDS011;61036;53.224;6.554;2022-09-09T05:15:06;10.77;;;6.60;;
72895;SDS011;61036;53.224;6.554;2022-09-09T05:17:32;9.70;;;6.80;;
72895;SDS011;61036;53.224;6.554;2022-09-09T05:19:59;9.40;;;6.27;;
72895;SDS011;61036;53.224;6.554;2022-09-09T05:22:24;10.70;;;6.43;;
72895;SDS011;61036;53.224;6.554;2022-09-09T05:24:51;10.10;;;6.97;;
72895;SDS011;61036;53.224;6.554;2022-09-09T05:27:17;11.67;;;6.47;;
72895;SDS011;61036;53.224;6.554;2022-09-09T05:29:45;10.40;;;6.80;;
72895;SDS011;61036;53.224;6.554;2022-09-09T05:32:12;11.10;;;7.23;;
72895;SDS011;61036;53.224;6.554;2022-09-09T05:34:40;10.13;;;6.60;;
72895;SDS011;61036;53.224;6.554;2022-09-09T05:37:05;9.83;;;6.23;;
72895;SDS011;61036;53.224;6.554;2022-09-09T05:39:33;11.43;;;7.37;;
72895;SDS011;61036;53.224;6.554;2022-09-09T05:41:59;11.03;;;7.97;;
72895;SDS011;61036;53.224;6.554;2022-09-09T05:44:24;9.90;;;7.20;;
72895;SDS011;61036;53.224;6.554;2022-09-09T05:46:53;9.90;;;7.67;;
72895;SDS011;61036;53.224;6.554;2022-09-09T05:49:20;12.47;;;8.73;;
72895;SDS011;61036;53.224;6.554;2022-09-09T05:51:47;10.60;;;7.90;;
72895;SDS011;61036;53.224;6.554;2022-09-09T05:54:16;10.33;;;8.33;;
72895;SDS011;61036;53.224;6.554;2022-09-09T05:56:46;12.07;;;8.97;;
72895;SDS011;61036;53.224;6.554;2022-09-09T05:59:11;11.73;;;8.37;;
72895;SDS011;61036;53.224;6.554;2022-09-09T06:01:38;11.07;;;8.77;;
72895;SDS011;61036;53.224;6.554;2022-09-09T06:04:06;12.57;;;8.57;;
72895;SDS011;61036;53.224;6.554;2022-09-09T06:06:34;12.80;;;8.83;;
72895;SDS011;61036;53.224;6.554;2022-09-09T06:09:06;12.03;;;8.60;;
72895;SDS011;61036;53.224;6.554;2022-09-09T06:11:35;12.40;;;9.63;;
72895;SDS011;61036;53.224;6.554;2022-09-09T06:14:03;14.23;;;9.60;;
72895;SDS011;61036;53.224;6.554;2022-09-09T06:16:30;11.67;;;8.00;;
72895;SDS011;61036;53.224;6.554;2022-09-09T06:19:00;14.77;;;9.80;;
72895;SDS011;61036;53.224;6.554;2022-09-09T06:21:28;10.63;;;8.53;;
72895;SDS011;61036;53.224;6.554;2022-09-09T06:23:57;13.80;;;9.40;;
72895;SDS011;61036;53.224;6.554;2022-09-09T06:26:24;11.67;;;8.40;;
72895;SDS011;61036;53.224;6.554;2022-09-09T06:28:56;11.90;;;8.80;;
72895;SDS011;61036;53.224;6.554;2022-09-09T06:31:24;12.43;;;7.87;;
72895;SDS011;61036;53.224;6.554;2022-09-09T06:33:57;13.00;;;7.47;;
72895;SDS011;61036;53.224;6.554;2022-09-09T06:36:25;13.40;;;8.07;;
72895;SDS011;61036;53.224;6.554;2022-09-09T06:38:55;11.13;;;7.87;;
72895;SDS011;61036;53.224;6.554;2022-09-09T06:41:23;10.23;;;7.33;;
72895;SDS011;61036;53.224;6.554;2022-09-09T06:43:51;9.97;;;7.67;;
72895;SDS011;61036;53.224;6.554;2022-09-09T06:46:27;12.23;;;7.70;;
72895;SDS011;61036;53.224;6.554;2022-09-09T06:48:55;9.80;;;7.60;;
72895;SDS011;61036;53.224;6.554;2022-09-09T06:51:23;10.70;;;7.67;;
72895;SDS011;61036;53.224;6.554;2022-09-09T06:53:54;9.80;;;7.77;;
72895;SDS011;61036;53.224;6.554;2022-09-09T06:56:24;10.37;;;7.73;;
72895;SDS011;61036;53.224;6.554;2022-09-09T06:59:01;11.60;;;7.63;;
72895;SDS011;61036;53.224;6.554;2022-09-09T07:01:34;13.33;;;7.93;;
72895;SDS011;61036;53.224;6.554;2022-09-09T07:04:04;8.87;;;6.37;;
72895;SDS011;61036;53.224;6.554;2022-09-09T07:06:36;10.47;;;7.60;;
72895;SDS011;61036;53.224;6.554;2022-09-09T07:09:07;11.57;;;6.63;;
72895;SDS011;61036;53.224;6.554;2022-09-09T07:14:07;10.33;;;6.97;;
72895;SDS011;61036;53.224;6.554;2022-09-09T07:16:33;8.70;;;6.73;;
72895;SDS011;61036;53.224;6.554;2022-09-09T07:19:01;9.03;;;6.70;;
72895;SDS011;61036;53.224;6.554;2022-09-09T07:21:28;8.63;;;6.00;;
72895;SDS011;61036;53.224;6.554;2022-09-09T07:23:55;9.83;;;6.80;;
72895;SDS011;61036;53.224;6.554;2022-09-09T07:26:23;9.17;;;6.50;;
72895;SDS011;61036;53.224;6.554;2022-09-09T07:28:51;9.20;;;6.50;;
72895;SDS011;61036;53.224;6.554;2022-09-09T07:31:21;10.20;;;6.90;;
72895;SDS011;61036;53.224;6.554;2022-09-09T07:33:58;8.93;;;6.23;;
72895;SDS011;61036;53.224;6.554;2022-09-09T07:36:26;9.20;;;6.87;;
72895;SDS011;61036;53.224;6.554;2022-09-09T07:38:54;8.37;;;6.83;;
72895;SDS011;61036;53.224;6.554;2022-09-09T07:41:23;8.87;;;6.60;;
72895;SDS011;61036;53.224;6.554;2022-09-09T07:43:51;8.83;;;6.00;;
72895;SDS011;61036;53.224;6.554;2022-09-09T07:46:20;10.20;;;5.90;;
72895;SDS011;61036;53.224;6.554;2022-09-09T07:48:48;8.30;;;6.70;;
72895;SDS011;61036;53.224;6.554;2022-09-09T07:51:19;9.90;;;6.00;;
72895;SDS011;61036;53.224;6.554;2022-09-09T07:53:51;9.63;;;6.53;;
72895;SDS011;61036;53.224;6.554;2022-09-09T07:56:21;11.37;;;6.90;;
72895;SDS011;61036;53.224;6.554;2022-09-09T07:58:49;10.57;;;6.50;;
72895;SDS011;61036;53.224;6.554;2022-09-09T08:01:26;8.90;;;6.00;;
72895;SDS011;61036;53.224;6.554;2022-09-09T08:03:59;8.67;;;5.53;;
72895;SDS011;61036;53.224;6.554;2022-09-09T08:06:46;7.50;;;5.70;;
72895;SDS011;61036;53.224;6.554;2022-09-09T08:09:21;8.10;;;5.77;;
72895;SDS011;61036;53.224;6.554;2022-09-09T08:11:50;8.27;;;5.67;;
72895;SDS011;61036;53.224;6.554;2022-09-09T08:14:16;7.00;;;5.37;;
72895;SDS011;61036;53.224;6.554;2022-09-09T08:16:43;8.23;;;5.73;;
72895;SDS011;61036;53.224;6.554;2022-09-09T08:19:12;11.83;;;5.90;;
72895;SDS011;61036;53.224;6.554;2022-09-09T08:21:39;7.33;;;5.07;;
72895;SDS011;61036;53.224;6.554;2022-09-09T08:24:06;7.70;;;5.37;;
72895;SDS011;61036;53.224;6.554;2022-09-09T08:26:35;8.33;;;4.83;;
72895;SDS011;61036;53.224;6.554;2022-09-09T08:29:08;7.90;;;4.80;;
72895;SDS011;61036;53.224;6.554;2022-09-09T08:31:37;7.60;;;4.77;;
72895;SDS011;61036;53.224;6.554;2022-09-09T08:34:08;9.43;;;4.67;;
72895;SDS011;61036;53.224;6.554;2022-09-09T08:36:41;9.07;;;5.00;;
72895;SDS011;61036;53.224;6.554;2022-09-09T08:39:11;9.27;;;4.90;;
72895;SDS011;61036;53.224;6.554;2022-09-09T08:52:17;9.73;;;4.90;;
72895;SDS011;61036;53.224;6.554;2022-09-09T08:54:47;7.77;;;4.37;;
72895;SDS011;61036;53.224;6.554;2022-09-09T08:57:23;7.37;;;3.90;;
72895;SDS011;61036;53.224;6.554;2022-09-09T08:59:52;8.20;;;4.07;;
72895;SDS011;61036;53.224;6.554;2022-09-09T09:05:23;7.83;;;4.20;;
72895;SDS011;61036;53.224;6.554;2022-09-09T09:11:02;7.30;;;4.00;;
72895;SDS011;61036;53.224;6.554;2022-09-09T09:13:43;9.77;;;4.07;;
72895;SDS011;61036;53.224;6.554;2022-09-09T09:18:59;8.40;;;4.40;;
72895;SDS011;61036;53.224;6.554;2022-09-09T09:21:33;8.97;;;4.30;;
72895;SDS011;61036;53.224;6.554;2022-09-09T09:24:06;9.40;;;4.60;;
72895;SDS011;61036;53.224;6.554;2022-09-09T09:26:40;9.63;;;4.70;;
72895;SDS011;61036;53.224;6.554;2022-09-09T09:29:13;11.10;;;4.57;;
72895;SDS011;61036;53.224;6.554;2022-09-09T09:31:43;6.67;;;4.00;;
72895;SDS011;61036;53.224;6.554;2022-09-09T09:34:22;6.60;;;3.80;;
72895;SDS011;61036;53.224;6.554;2022-09-09T09:36:54;7.90;;;3.80;;
72895;SDS011;61036;53.224;6.554;2022-09-09T09:39:27;6.63;;;4.17;;
72895;SDS011;61036;53.224;6.554;2022-09-09T09:41:58;7.10;;;3.83;;
72895;SDS011;61036;53.224;6.554;2022-09-09T09:44:40;8.00;;;4.10;;
72895;SDS011;61036;53.224;6.554;2022-09-09T09:47:15;7.23;;;3.63;;
72895;SDS011;61036;53.224;6.554;2022-09-09T09:49:52;8.27;;;4.00;;
72895;SDS011;61036;53.224;6.554;2022-09-09T09:52:32;9.13;;;4.40;;
72895;SDS011;61036;53.224;6.554;2022-09-09T09:55:02;6.27;;;3.40;;
72895;SDS011;61036;53.224;6.554;2022-09-09T09:57:29;9.00;;;3.93;;
72895;SDS011;61036;53.224;6.554;2022-09-09T10:00:12;7.97;;;3.50;;
72895;SDS011;61036;53.224;6.554;2022-09-09T10:02:40;8.53;;;3.67;;
72895;SDS011;61036;53.224;6.554;2022-09-09T10:07:44;9.53;;;4.33;;
72895;SDS011;61036;53.224;6.554;2022-09-09T10:10:20;9.43;;;4.43;;
72895;SDS011;61036;53.224;6.554;2022-09-09T10:20:54;6.77;;;3.10;;
72895;SDS011;61036;53.224;6.554;2022-09-09T10:36:48;8.33;;;2.97;;
72895;SDS011;61036;53.224;6.554;2022-09-09T10:39:18;7.13;;;2.90;;
72895;SDS011;61036;53.224;6.554;2022-09-09T10:42:06;8.57;;;2.87;;
72895;SDS011;61036;53.224;6.554;2022-09-09T10:55:26;7.83;;;2.50;;
72895;SDS011;61036;53.224;6.554;2022-09-09T10:58:01;6.43;;;2.10;;
72895;SDS011;61036;53.224;6.554;2022-09-09T11:03:09;9.07;;;2.17;;
72895;SDS011;61036;53.224;6.554;2022-09-09T11:05:46;11.63;;;2.90;;
72895;SDS011;61036;53.224;6.554;2022-09-09T11:13:15;7.60;;;2.30;;
72895;SDS011;61036;53.224;6.554;2022-09-09T11:15:49;6.97;;;2.20;;
72895;SDS011;61036;53.224;6.554;2022-09-09T11:18:19;7.50;;;1.90;;
72895;SDS011;61036;53.224;6.554;2022-09-09T11:20:52;6.13;;;1.83;;
72895;SDS011;61036;53.224;6.554;2022-09-09T11:26:15;6.27;;;1.77;;
72895;SDS011;61036;53.224;6.554;2022-09-09T11:29:05;5.30;;;1.87;;
72895;SDS011;61036;53.224;6.554;2022-09-09T11:34:20;6.00;;;1.70;;
72895;SDS011;61036;53.224;6.554;2022-09-09T11:37:16;8.00;;;2.20;;
72895;SDS011;61036;53.224;6.554;2022-09-09T11:40:16;8.37;;;2.23;;
72895;SDS011;61036;53.224;6.554;2022-09-09T11:43:00;8.70;;;2.20;;
72895;SDS011;61036;53.224;6.554;2022-09-09T11:45:53;5.87;;;1.80;;
72895;SDS011;61036;53.224;6.554;2022-09-09T11:51:08;9.47;;;2.40;;
72895;SDS011;61036;53.224;6.554;2022-09-09T11:53:59;8.30;;;2.10;;
72895;SDS011;61036;53.224;6.554;2022-09-09T11:56:34;7.13;;;2.27;;
72895;SDS011;61036;53.224;6.554;2022-09-09T12:07:22;6.57;;;2.03;;
72895;SDS011;61036;53.224;6.554;2022-09-09T12:13:29;11.07;;;1.90;;
72895;SDS011;61036;53.224;6.554;2022-09-09T12:15:46;8.97;;;2.17;;
72895;SDS011;61036;53.224;6.554;2022-09-09T12:18:36;6.57;;;2.00;;
72895;SDS011;61036;53.224;6.554;2022-09-09T12:26:34;4.43;;;1.80;;
72895;SDS011;61036;53.224;6.554;2022-09-09T12:31:59;5.97;;;1.70;;
72895;SDS011;61036;53.224;6.554;2022-09-09T12:34:38;6.00;;;1.80;;
72895;SDS011;61036;53.224;6.554;2022-09-09T12:37:27;5.53;;;1.60;;
72895;SDS011;61036;53.224;6.554;2022-09-09T12:40:06;6.47;;;2.00;;
72895;SDS011;61036;53.224;6.554;2022-09-09T12:42:44;6.50;;;2.03;;
72895;SDS011;61036;53.224;6.554;2022-09-09T12:45:16;6.30;;;1.53;;
72895;SDS011;61036;53.224;6.554;2022-09-09T12:50:22;6.10;;;1.87;;
72895;SDS011;61036;53.224;6.554;2022-09-09T12:52:53;6.30;;;1.87;;
72895;SDS011;61036;53.224;6.554;2022-09-09T12:55:28;6.93;;;2.37;;
72895;SDS011;61036;53.224;6.554;2022-09-09T12:57:58;6.63;;;2.03;;
72895;SDS011;61036;53.224;6.554;2022-09-09T13:00:29;6.40;;;2.00;;
72895;SDS011;61036;53.224;6.554;2022-09-09T13:02:56;7.67;;;2.10;;
72895;SDS011;61036;53.224;6.554;2022-09-09T13:05:25;6.70;;;2.07;;
72895;SDS011;61036;53.224;6.554;2022-09-09T13:08:04;7.67;;;2.23;;
72895;SDS011;61036;53.224;6.554;2022-09-09T13:10:33;5.53;;;1.73;;
72895;SDS011;61036;53.224;6.554;2022-09-09T13:13:13;5.93;;;1.80;;
72895;SDS011;61036;53.224;6.554;2022-09-09T13:15:47;6.23;;;2.10;;
72895;SDS011;61036;53.224;6.554;2022-09-09T13:18:23;7.07;;;2.27;;
72895;SDS011;61036;53.224;6.554;2022-09-09T13:20:52;7.67;;;2.37;;
72895;SDS011;61036;53.224;6.554;2022-09-09T13:23:18;8.03;;;1.97;;
72895;SDS011;61036;53.224;6.554;2022-09-09T13:25:58;7.57;;;1.97;;
72895;SDS011;61036;53.224;6.554;2022-09-09T13:28:27;6.60;;;1.93;;
72895;SDS011;61036;53.224;6.554;2022-09-09T13:30:57;6.00;;;2.00;;
72895;SDS011;61036;53.224;6.554;2022-09-09T13:33:36;5.23;;;1.77;;
72895;SDS011;61036;53.224;6.554;2022-09-09T13:36:04;8.03;;;2.03;;
72895;SDS011;61036;53.224;6.554;2022-09-09T13:38:33;3.47;;;1.60;;
72895;SDS011;61036;53.224;6.554;2022-09-09T13:41:07;6.37;;;1.80;;
72895;SDS011;61036;53.224;6.554;2022-09-09T13:43:42;9.60;;;2.10;;
72895;SDS011;61036;53.224;6.554;2022-09-09T13:48:55;7.00;;;1.90;;
72895;SDS011;61036;53.224;6.554;2022-09-09T13:51:44;7.03;;;1.93;;
72895;SDS011;61036;53.224;6.554;2022-09-09T13:54:12;5.43;;;1.87;;
72895;SDS011;61036;53.224;6.554;2022-09-09T13:56:40;5.67;;;1.97;;
72895;SDS011;61036;53.224;6.554;2022-09-09T13:59:15;5.90;;;1.90;;
72895;SDS011;61036;53.224;6.554;2022-09-09T14:01:46;4.43;;;1.33;;
72895;SDS011;61036;53.224;6.554;2022-09-09T14:04:14;6.17;;;1.97;;
72895;SDS011;61036;53.224;6.554;2022-09-09T14:06:42;6.03;;;1.87;;
72895;SDS011;61036;53.224;6.554;2022-09-09T14:09:12;6.00;;;1.60;;
72895;SDS011;61036;53.224;6.554;2022-09-09T14:11:39;4.93;;;1.30;;
72895;SDS011;61036;53.224;6.554;2022-09-09T14:14:05;6.53;;;1.50;;
72895;SDS011;61036;53.224;6.554;2022-09-09T14:16:34;6.17;;;1.80;;
72895;SDS011;61036;53.224;6.554;2022-09-09T14:19:00;4.17;;;1.60;;
72895;SDS011;61036;53.224;6.554;2022-09-09T14:21:26;6.27;;;1.60;;
72895;SDS011;61036;53.224;6.554;2022-09-09T14:23:52;6.57;;;1.63;;
72895;SDS011;61036;53.224;6.554;2022-09-09T14:26:21;4.93;;;1.70;;
72895;SDS011;61036;53.224;6.554;2022-09-09T14:28:47;3.10;;;1.20;;
72895;SDS011;61036;53.224;6.554;2022-09-09T14:31:13;5.20;;;1.47;;
72895;SDS011;61036;53.224;6.554;2022-09-09T14:33:39;5.77;;;1.70;;
72895;SDS011;61036;53.224;6.554;2022-09-09T14:36:05;3.80;;;1.60;;
72895;SDS011;61036;53.224;6.554;2022-09-09T14:38:32;5.47;;;1.70;;
72895;SDS011;61036;53.224;6.554;2022-09-09T14:41:00;7.03;;;1.80;;
72895;SDS011;61036;53.224;6.554;2022-09-09T14:43:28;6.30;;;1.50;;
72895;SDS011;61036;53.224;6.554;2022-09-09T14:45:55;6.50;;;1.37;;
72895;SDS011;61036;53.224;6.554;2022-09-09T14:48:21;2.70;;;1.20;;
72895;SDS011;61036;53.224;6.554;2022-09-09T14:50:46;6.97;;;1.53;;
72895;SDS011;61036;53.224;6.554;2022-09-09T14:53:12;4.53;;;1.27;;
72895;SDS011;61036;53.224;6.554;2022-09-09T14:55:37;1.73;;;0.73;;
72895;SDS011;61036;53.224;6.554;2022-09-09T14:58:04;2.63;;;1.00;;
72895;SDS011;61036;53.224;6.554;2022-09-09T15:00:31;4.03;;;1.30;;
72895;SDS011;61036;53.224;6.554;2022-09-09T15:02:56;1.67;;;0.63;;
72895;SDS011;61036;53.224;6.554;2022-09-09T15:05:22;3.40;;;1.00;;
72895;SDS011;61036;53.224;6.554;2022-09-09T15:07:49;1.10;;;0.67;;
72895;SDS011;61036;53.224;6.554;2022-09-09T15:10:15;2.63;;;0.83;;
72895;SDS011;61036;53.224;6.554;2022-09-09T15:12:43;2.53;;;1.10;;
72895;SDS011;61036;53.224;6.554;2022-09-09T15:15:09;3.73;;;1.53;;
72895;SDS011;61036;53.224;6.554;2022-09-09T15:17:35;4.93;;;1.13;;
72895;SDS011;61036;53.224;6.554;2022-09-09T15:20:02;2.70;;;1.20;;
72895;SDS011;61036;53.224;6.554;2022-09-09T15:22:31;4.40;;;1.17;;
72895;SDS011;61036;53.224;6.554;2022-09-09T15:24:57;4.63;;;1.60;;
72895;SDS011;61036;53.224;6.554;2022-09-09T15:27:22;4.37;;;1.70;;
72895;SDS011;61036;53.224;6.554;2022-09-09T15:29:49;3.70;;;1.30;;
72895;SDS011;61036;53.224;6.554;2022-09-09T15:32:15;4.20;;;1.47;;
72895;SDS011;61036;53.224;6.554;2022-09-09T15:34:42;4.50;;;1.20;;
72895;SDS011;61036;53.224;6.554;2022-09-09T15:37:11;5.57;;;1.70;;
72895;SDS011;61036;53.224;6.554;2022-09-09T15:39:38;5.90;;;1.83;;
72895;SDS011;61036;53.224;6.554;2022-09-09T15:42:04;6.87;;;1.83;;
72895;SDS011;61036;53.224;6.554;2022-09-09T15:44:38;2.83;;;1.30;;
72895;SDS011;61036;53.224;6.554;2022-09-09T15:47:04;6.60;;;1.83;;
72895;SDS011;61036;53.224;6.554;2022-09-09T15:49:30;5.53;;;1.97;;
72895;SDS011;61036;53.224;6.554;2022-09-09T15:51:56;3.43;;;1.37;;
72895;SDS011;61036;53.224;6.554;2022-09-09T15:54:25;4.53;;;1.50;;
72895;SDS011;61036;53.224;6.554;2022-09-09T15:56:54;3.03;;;1.33;;
72895;SDS011;61036;53.224;6.554;2022-09-09T15:59:22;3.03;;;1.13;;
72895;SDS011;61036;53.224;6.554;2022-09-09T16:01:49;4.73;;;1.53;;
72895;SDS011;61036;53.224;6.554;2022-09-09T16:04:17;5.53;;;1.30;;
72895;SDS011;61036;53.224;6.554;2022-09-09T16:06:49;4.17;;;1.50;;
72895;SDS011;61036;53.224;6.554;2022-09-09T16:09:18;4.10;;;1.47;;
72895;SDS011;61036;53.224;6.554;2022-09-09T16:11:46;4.67;;;1.60;;
72895;SDS011;61036;53.224;6.554;2022-09-09T16:14:13;5.00;;;1.63;;
72895;SDS011;61036;53.224;6.554;2022-09-09T16:16:40;3.30;;;1.20;;
72895;SDS011;61036;53.224;6.554;2022-09-09T16:19:15;2.73;;;1.30;;
72895;SDS011;61036;53.224;6.554;2022-09-09T16:21:44;4.13;;;1.27;;
72895;SDS011;61036;53.224;6.554;2022-09-09T16:24:12;3.17;;;1.20;;
72895;SDS011;61036;53.224;6.554;2022-09-09T16:26:40;3.73;;;1.30;;
72895;SDS011;61036;53.224;6.554;2022-09-09T16:29:10;4.43;;;1.60;;
72895;SDS011;61036;53.224;6.554;2022-09-09T16:31:37;4.10;;;1.40;;
72895;SDS011;61036;53.224;6.554;2022-09-09T16:34:03;4.57;;;1.70;;
72895;SDS011;61036;53.224;6.554;2022-09-09T16:36:32;3.57;;;1.40;;
72895;SDS011;61036;53.224;6.554;2022-09-09T16:39:05;2.80;;;1.33;;
72895;SDS011;61036;53.224;6.554;2022-09-09T16:41:34;2.83;;;1.43;;
72895;SDS011;61036;53.224;6.554;2022-09-09T16:44:01;4.67;;;1.53;;
72895;SDS011;61036;53.224;6.554;2022-09-09T16:46:33;3.53;;;1.53;;
72895;SDS011;61036;53.224;6.554;2022-09-09T16:49:00;4.53;;;1.60;;
72895;SDS011;61036;53.224;6.554;2022-09-09T16:51:28;5.07;;;1.90;;
72895;SDS011;61036;53.224;6.554;2022-09-09T16:54:00;6.13;;;2.10;;
72895;SDS011;61036;53.224;6.554;2022-09-09T16:56:27;4.63;;;1.50;;
72895;SDS011;61036;53.224;6.554;2022-09-09T16:58:55;4.93;;;1.50;;
72895;SDS011;61036;53.224;6.554;2022-09-09T17:01:23;4.77;;;1.80;;
72895;SDS011;61036;53.224;6.554;2022-09-09T17:03:53;6.20;;;1.50;;
72895;SDS011;61036;53.224;6.554;2022-09-09T17:06:20;3.73;;;1.50;;
72895;SDS011;61036;53.224;6.554;2022-09-09T17:08:46;5.40;;;1.90;;
72895;SDS011;61036;53.224;6.554;2022-09-09T17:11:18;4.53;;;1.67;;
72895;SDS011;61036;53.224;6.554;2022-09-09T17:13:44;4.87;;;1.80;;
72895;SDS011;61036;53.224;6.554;2022-09-09T17:16:12;4.17;;;1.97;;
72895;SDS011;61036;53.224;6.554;2022-09-09T17:18:39;7.50;;;2.00;;
72895;SDS011;61036;53.224;6.554;2022-09-09T17:21:06;5.37;;;2.00;;